Time;durP1;ratioP1;P1;durP2;ratioP2;P2;SDS_P1;SDS_P2;PMS_P1;PMS_P2;Temp;Humidity;BMP_temperature;BMP_pressure;BME280_temperature;BME280_humidity;BME280_pressure;Samples;Min_cycle;Max_cycle;Signal;HPM_P1;HPM_P2
2022/07/12 00:03:18;;;;;;;3.60;1.00;;;22.90;55.10;;;;;;220528;1267;22625;-55
2022/07/12 00:08:23;;;;;;;1.80;0.90;;;22.90;54.50;;;;;;220767;1268;24365;-53
2022/07/12 00:13:27;;;;;;;2.00;1.20;;;22.90;54.60;;;;;;220464;1268;22528;-50
2022/07/12 00:18:31;;;;;;;4.00;1.00;;;22.90;54.50;;;;;;220361;1267;22550;-51
2022/07/12 00:23:35;;;;;;;1.70;0.80;;;22.90;54.50;;;;;;220461;1267;22560;-53
2022/07/12 00:28:38;;;;;;;2.90;0.90;;;22.90;55.10;;;;;;220144;1268;24289;-55
2022/07/12 00:33:42;;;;;;;1.90;0.90;;;22.90;54.50;;;;;;220378;1267;24083;-52
2022/07/12 00:38:46;;;;;;;2.20;1.00;;;22.80;54.70;;;;;;220498;1266;24345;-51
2022/07/12 00:43:50;;;;;;;1.50;1.00;;;22.80;54.50;;;;;;220583;1267;25519;-52
2022/07/12 00:48:54;;;;;;;2.30;0.80;;;22.80;54.50;;;;;;220173;1268;23727;-50
2022/07/12 00:53:59;;;;;;;2.00;0.90;;;22.80;54.50;;;;;;220316;1267;24253;-51
2022/07/12 00:59:03;;;;;;;7.70;0.90;;;22.80;54.20;;;;;;220233;1267;23311;-52
2022/07/12 01:04:09;;;;;;;3.40;1.00;;;22.80;54.40;;;;;;220440;1267;22538;-51
2022/07/12 01:09:14;;;;;;;3.40;1.10;;;22.70;54.40;;;;;;220447;1267;26459;-52
2022/07/12 01:14:29;;;;;;;2.40;1.00;;;22.80;55.10;;;;;;220595;1267;25599;-50
2022/07/12 01:19:39;;;;;;;1.40;0.80;;;22.70;54.30;;;;;;220402;1267;22775;-51
2022/07/12 01:24:51;;;;;;;1.50;0.80;;;22.70;54.40;;;;;;220258;1268;25951;-52
2022/07/12 01:30:05;;;;;;;1.60;0.90;;;22.70;54.40;;;;;;220285;1267;24148;-54
2022/07/12 01:35:10;;;;;;;1.70;0.90;;;22.70;54.30;;;;;;220287;1267;459348;-54
2022/07/12 01:40:16;;;;;;;1.50;0.90;;;22.70;54.40;;;;;;220270;1267;22528;-51
2022/07/12 01:45:19;;;;;;;2.20;1.00;;;22.70;54.40;;;;;;220318;1268;22564;-53
2022/07/12 01:50:24;;;;;;;1.60;1.00;;;22.70;54.40;;;;;;220725;1267;22574;-49
2022/07/12 01:55:30;;;;;;;1.90;1.10;;;22.70;54.30;;;;;;220415;1267;22586;-50
2022/07/12 02:00:34;;;;;;;1.20;0.90;;;22.70;54.30;;;;;;220364;1268;22544;-51
2022/07/12 02:05:38;;;;;;;2.50;0.90;;;22.70;54.20;;;;;;220274;1267;24209;-53
2022/07/12 02:10:43;;;;;;;2.50;0.80;;;22.60;54.20;;;;;;220294;1267;22718;-49
2022/07/12 02:15:47;;;;;;;1.50;0.90;;;22.60;54.10;;;;;;220577;1267;22525;-49
2022/07/12 02:20:50;;;;;;;1.80;1.00;;;22.60;54.10;;;;;;220596;1267;22528;-50
2022/07/12 02:25:54;;;;;;;1.50;0.80;;;22.60;54.10;;;;;;220392;1267;22597;-51
2022/07/12 02:30:57;;;;;;;2.60;0.90;;;22.60;54.10;;;;;;220109;1268;25305;-53
2022/07/12 02:36:02;;;;;;;1.80;0.90;;;22.60;54.40;;;;;;220468;1267;24177;-54
2022/07/12 02:41:06;;;;;;;2.20;0.90;;;22.60;54.10;;;;;;220590;1267;22560;-49
2022/07/12 02:46:11;;;;;;;3.00;1.00;;;22.50;54.10;;;;;;220089;1270;22537;-48
2022/07/12 02:51:15;;;;;;;1.60;0.80;;;22.50;54.00;;;;;;220403;1267;22833;-54
2022/07/12 02:56:18;;;;;;;3.00;0.90;;;22.50;54.00;;;;;;220331;1267;24139;-53
2022/07/12 03:01:27;;;;;;;1.50;0.90;;;22.50;54.00;;;;;;220536;1267;25141;-54
2022/07/12 03:06:34;;;;;;;7.80;1.00;;;22.60;54.10;;;;;;220798;1267;22566;-52
2022/07/12 03:11:38;;;;;;;2.90;1.10;;;22.50;54.00;;;;;;220107;1268;22609;-52
2022/07/12 03:16:42;;;;;;;3.40;1.00;;;22.50;54.10;;;;;;220400;1269;22607;-50
2022/07/12 03:21:46;;;;;;;2.70;0.90;;;22.50;54.00;;;;;;220432;1267;22528;-52
2022/07/12 03:26:51;;;;;;;2.80;1.10;;;22.40;53.90;;;;;;220651;1268;25466;-51
2022/07/12 03:31:54;;;;;;;2.30;0.90;;;22.50;54.00;;;;;;220399;1267;25526;-51
2022/07/12 03:36:58;;;;;;;1.30;0.90;;;22.50;54.00;;;;;;220305;1267;25371;-48
2022/07/12 03:42:02;;;;;;;1.80;0.90;;;22.50;54.30;;;;;;220580;1267;24251;-52
2022/07/12 03:47:08;;;;;;;1.40;0.80;;;22.40;53.90;;;;;;220169;1268;22587;-51
2022/07/12 03:52:15;;;;;;;1.40;0.80;;;22.40;53.90;;;;;;220383;1267;24830;-54
2022/07/12 03:57:18;;;;;;;3.90;0.90;;;22.40;53.90;;;;;;220424;1267;22537;-49
2022/07/12 04:02:23;;;;;;;1.70;0.80;;;22.40;54.00;;;;;;220809;1269;25291;-50
2022/07/12 04:07:26;;;;;;;2.40;0.90;;;22.40;53.90;;;;;;220413;1267;23029;-53
2022/07/12 04:12:47;;;;;;;1.70;0.80;;;22.40;54.00;;;;;;220880;1268;22547;-52
2022/07/12 04:17:57;;;;;;;2.00;0.90;;;22.40;54.00;;;;;;220320;1268;24138;-49
2022/07/12 04:23:00;;;;;;;2.10;0.90;;;22.40;54.00;;;;;;220468;1269;22541;-58
2022/07/12 04:28:04;;;;;;;2.40;1.10;;;22.40;54.10;;;;;;220311;1267;22601;-50
2022/07/12 04:33:08;;;;;;;1.20;0.80;;;22.40;54.00;;;;;;220535;1269;24326;-51
2022/07/12 04:38:12;;;;;;;1.90;0.90;;;22.40;54.00;;;;;;220671;1268;23163;-53
2022/07/12 04:43:16;;;;;;;1.40;0.80;;;22.40;54.00;;;;;;220683;1270;25318;-51
2022/07/12 04:48:20;;;;;;;1.10;0.80;;;22.40;54.30;;;;;;220090;1270;22549;-52
2022/07/12 04:53:28;;;;;;;1.70;0.90;;;22.40;54.00;;;;;;220682;1269;26495;-51
2022/07/12 04:58:31;;;;;;;3.00;0.90;;;22.40;54.70;;;;;;220898;1267;22616;-52
2022/07/12 05:03:35;;;;;;;2.00;1.00;;;22.40;54.00;;;;;;220597;1267;22607;-49
2022/07/12 05:08:38;;;;;;;1.50;0.90;;;22.40;54.00;;;;;;220328;1267;22702;-54
2022/07/12 05:13:42;;;;;;;1.90;1.00;;;22.40;54.00;;;;;;220286;1267;22522;-50
2022/07/12 05:18:46;;;;;;;1.40;0.80;;;22.40;54.00;;;;;;220060;1270;22551;-51
2022/07/12 05:23:53;;;;;;;1.30;0.80;;;22.40;54.10;;;;;;220209;1268;22554;-54
2022/07/12 05:29:00;;;;;;;1.50;1.00;;;22.40;54.00;;;;;;220235;1270;26544;-51
2022/07/12 05:34:13;;;;;;;1.40;0.90;;;22.40;54.30;;;;;;220237;1268;24343;-53
2022/07/12 05:39:17;;;;;;;2.00;0.80;;;22.40;54.00;;;;;;220417;1267;22551;-52
2022/07/12 05:44:22;;;;;;;1.70;0.80;;;22.40;54.00;;;;;;220462;1267;22940;-54
2022/07/12 05:49:26;;;;;;;2.50;1.00;;;22.40;54.00;;;;;;220191;1270;25245;-53
2022/07/12 05:54:30;;;;;;;1.90;1.00;;;22.40;54.00;;;;;;220363;1267;23897;-53
2022/07/12 05:59:37;;;;;;;1.80;0.90;;;22.40;54.40;;;;;;220754;1267;25167;-54
2022/07/12 06:04:42;;;;;;;2.90;1.00;;;22.40;54.40;;;;;;220239;1267;25271;-52
2022/07/12 06:09:53;;;;;;;1.20;0.80;;;22.40;54.10;;;;;;220302;1270;24685;-51
2022/07/12 06:14:56;;;;;;;2.50;1.10;;;22.40;54.10;;;;;;220482;1267;24204;-51
2022/07/12 06:20:07;;;;;;;1.60;1.00;;;22.40;54.10;;;;;;220561;1267;22847;-53
2022/07/12 06:25:10;;;;;;;2.90;1.30;;;22.40;54.00;;;;;;220266;1267;22547;-53
2022/07/12 06:30:37;;;;;;;2.20;1.20;;;22.50;54.20;;;;;;220184;1267;22613;-50
2022/07/12 06:35:41;;;;;;;1.60;1.00;;;22.50;54.50;;;;;;220495;1267;23939;-53
2022/07/12 06:40:45;;;;;;;2.30;0.90;;;22.50;54.50;;;;;;220558;1267;24486;-53
2022/07/12 06:45:52;;;;;;;1.40;0.80;;;22.50;54.20;;;;;;220343;1268;25609;-52
2022/07/12 06:50:56;;;;;;;2.10;0.90;;;22.50;54.50;;;;;;220261;1268;23799;-49
2022/07/12 06:56:00;;;;;;;3.10;0.80;;;22.60;54.20;;;;;;220183;1267;22603;-51
2022/07/12 07:01:03;;;;;;;1.30;0.70;;;22.60;54.20;;;;;;220123;1268;22735;-53
2022/07/12 07:06:07;;;;;;;2.40;0.90;;;22.60;54.60;;;;;;220270;1267;22527;-53
2022/07/12 07:11:11;;;;;;;2.40;1.10;;;22.60;54.20;;;;;;220369;1267;25223;-52
2022/07/12 07:16:23;;;;;;;5.40;0.70;;;22.60;54.20;;;;;;220026;1267;25218;-57
2022/07/12 07:21:27;;;;;;;3.90;1.20;;;22.60;54.30;;;;;;220368;1267;22564;-56
2022/07/12 07:26:32;;;;;;;1.80;1.00;;;22.70;54.50;;;;;;220250;1267;23142;-58
2022/07/12 07:31:37;;;;;;;7.50;1.30;;;22.70;54.50;;;;;;220143;1267;22619;-56
2022/07/12 07:36:41;;;;;;;1.90;1.10;;;22.70;54.70;;;;;;220365;1267;22542;-56
2022/07/12 07:41:45;;;;;;;3.90;1.00;;;22.70;54.60;;;;;;220477;1268;24504;-55
2022/07/12 07:46:48;;;;;;;4.20;1.00;;;22.80;54.80;;;;;;220432;1267;22733;-58
2022/07/12 07:51:59;;;;;;;4.60;1.20;;;22.80;54.70;;;;;;220573;1269;22805;-59
2022/07/12 07:57:06;;;;;;;2.90;0.90;;;22.90;55.60;;;;;;220346;1267;25505;-57
2022/07/12 08:02:38;;;;;;;3.50;1.50;;;22.90;57.70;;;;;;220802;1268;22585;-57
2022/07/12 08:07:47;;;;;;;5.10;1.20;;;22.90;57.30;;;;;;220638;1267;22812;-58
2022/07/12 08:13:02;;;;;;;2.40;1.00;;;23.00;57.20;;;;;;219846;1270;24878;-57
2022/07/12 08:18:31;;;;;;;3.00;1.00;;;23.00;57.70;;;;;;220005;1267;25521;-58
2022/07/12 08:23:41;;;;;;;5.30;1.10;;;23.00;57.60;;;;;;220026;1271;22531;-56
2022/07/12 08:29:05;;;;;;;4.20;1.10;;;23.00;57.70;;;;;;220104;1267;24225;-56
2022/07/12 08:34:12;;;;;;;3.70;0.90;;;23.00;57.40;;;;;;220580;1267;24150;-57
2022/07/12 08:39:29;;;;;;;5.90;1.50;;;23.00;56.90;;;;;;220391;1267;25634;-56
2022/07/12 08:45:04;;;;;;;4.70;1.40;;;23.00;57.60;;;;;;220118;1267;22557;-57
2022/07/12 08:50:17;;;;;;;4.80;1.10;;;23.00;58.80;;;;;;219804;1270;24233;-56
2022/07/12 08:56:07;;;;;;;6.00;1.50;;;23.00;58.10;;;;;;220527;1267;24270;-59
2022/07/12 09:01:42;;;;;;;3.50;1.30;;;23.00;58.40;;;;;;220257;1270;22547;-57
2022/07/12 09:06:56;;;;;;;4.50;1.20;;;23.10;58.50;;;;;;220357;1268;22529;-58
2022/07/12 09:12:22;;;;;;;3.80;1.10;;;23.10;58.70;;;;;;220087;1270;25313;-59
2022/07/12 09:17:59;;;;;;;1.90;1.10;;;23.10;59.40;;;;;;220448;1267;25152;-56
2022/07/12 09:23:26;;;;;;;2.80;1.20;;;23.20;59.30;;;;;;220006;1270;25365;-56
2022/07/12 09:29:18;;;;;;;2.50;1.10;;;23.20;59.30;;;;;;220041;1268;24219;-57
2022/07/12 09:41:28;;;;;;;4.00;1.40;;;23.20;59.10;;;;;;219436;1273;24202;-58
2022/07/12 09:47:00;;;;;;;5.30;1.20;;;23.30;59.80;;;;;;219336;1275;24232;-58
2022/07/12 09:52:24;;;;;;;8.50;1.40;;;23.30;61.80;;;;;;219844;1273;24240;-58
2022/07/12 09:57:40;;;;;;;8.40;1.50;;;23.40;61.90;;;;;;219525;1276;26133;-57
2022/07/12 10:02:45;;;;;;;5.70;1.40;;;23.40;61.90;;;;;;219050;1274;22638;-57
2022/07/12 10:07:50;;;;;;;5.50;1.40;;;23.30;59.40;;;;;;219395;1274;24119;-57
2022/07/12 10:12:58;;;;;;;4.70;1.60;;;23.30;59.00;;;;;;220146;1270;24229;-57
2022/07/12 10:18:05;;;;;;;8.10;1.30;;;23.30;58.90;;;;;;220273;1270;22542;-57
2022/07/12 10:23:35;;;;;;;6.00;1.20;;;23.30;58.50;;;;;;220579;1268;26568;-58
2022/07/12 10:29:02;;;;;;;3.70;1.10;;;23.30;58.40;;;;;;220511;1270;22593;-58
2022/07/12 10:34:19;;;;;;;3.00;1.20;;;23.30;57.60;;;;;;220279;1270;23901;-57
2022/07/12 10:39:25;;;;;;;2.70;1.30;;;23.30;57.60;;;;;;220359;1268;25288;-55
2022/07/12 10:44:38;;;;;;;2.80;1.10;;;23.30;57.20;;;;;;220314;1268;22999;-58
2022/07/12 10:49:50;;;;;;;2.40;1.00;;;23.30;56.60;;;;;;220334;1269;22645;-57
2022/07/12 10:54:55;;;;;;;3.50;1.10;;;23.30;56.40;;;;;;220546;1268;24249;-57
2022/07/12 10:59:59;;;;;;;3.70;1.10;;;23.30;56.10;;;;;;220376;1268;22551;-60
2022/07/12 11:05:04;;;;;;;2.60;1.00;;;23.30;55.70;;;;;;220279;1270;24715;-58
2022/07/12 11:10:11;;;;;;;3.40;1.00;;;23.30;55.50;;;;;;220678;1270;22540;-57
2022/07/12 11:15:15;;;;;;;1.70;0.80;;;23.40;55.60;;;;;;220548;1268;24397;-55
2022/07/12 11:20:19;;;;;;;6.80;1.10;;;23.50;55.10;;;;;;220574;1271;24224;-58
2022/07/12 11:25:23;;;;;;;10.90;1.00;;;23.50;55.20;;;;;;220564;1268;24215;-57
2022/07/12 11:30:26;;;;;;;2.30;1.00;;;23.50;54.70;;;;;;220657;1268;22542;-55
2022/07/12 11:35:31;;;;;;;2.50;1.10;;;23.60;55.30;;;;;;220863;1268;22645;-61
2022/07/12 11:40:35;;;;;;;4.90;1.20;;;23.60;55.00;;;;;;220217;1268;25521;-58
2022/07/12 11:45:39;;;;;;;1.40;0.90;;;23.60;54.90;;;;;;220782;1268;22564;-58
2022/07/12 11:50:47;;;;;;;4.40;1.00;;;23.60;54.90;;;;;;220305;1268;22662;-57
2022/07/12 11:55:55;;;;;;;1.90;1.00;;;23.60;54.90;;;;;;220410;1268;23959;-58
2022/07/12 12:01:00;;;;;;;3.80;1.00;;;23.60;55.00;;;;;;220467;1268;24399;-57
2022/07/12 12:06:04;;;;;;;2.30;1.30;;;23.60;54.60;;;;;;220773;1267;22536;-58
2022/07/12 12:11:09;;;;;;;2.90;1.20;;;23.60;54.50;;;;;;220374;1268;23998;-55
2022/07/12 12:16:12;;;;;;;4.60;1.30;;;23.60;54.80;;;;;;220673;1268;22580;-57
2022/07/12 12:21:29;;;;;;;2.30;1.10;;;23.60;54.50;;;;;;220670;1268;22588;-58
2022/07/12 12:26:42;;;;;;;2.50;1.00;;;23.60;54.40;;;;;;220538;1268;22733;-56
2022/07/12 12:31:58;;;;;;;1.60;1.10;;;23.70;54.50;;;;;;220479;1268;24411;-57
2022/07/12 12:37:03;;;;;;;1.80;1.00;;;23.70;53.70;;;;;;220530;1271;25371;-59
2022/07/12 12:42:16;;;;;;;2.10;1.00;;;23.70;54.30;;;;;;220417;1268;22572;-56
2022/07/12 12:48:00;;;;;;;1.50;0.90;;;23.70;53.80;;;;;;220463;1269;24222;-58
2022/07/12 12:53:11;;;;;;;2.00;0.90;;;23.70;53.30;;;;;;220650;1268;25313;-57
2022/07/12 12:58:16;;;;;;;;;;;23.80;53.90;;;;;;220306;1268;22544;-59
2022/07/12 13:03:24;;;;;;;2.30;1.10;;;23.80;53.60;;;;;;220551;1267;25308;-60
2022/07/12 13:08:28;;;;;;;1.60;1.00;;;23.80;53.50;;;;;;220715;1268;22529;-57
2022/07/12 13:13:33;;;;;;;2.10;0.90;;;23.80;53.50;;;;;;220227;1268;22530;-58
2022/07/12 13:18:37;;;;;;;1.00;0.70;;;23.80;53.20;;;;;;220648;1268;24231;-56
2022/07/12 13:23:42;;;;;;;1.30;0.80;;;23.80;53.10;;;;;;220184;1268;25305;-59
2022/07/12 13:28:46;;;;;;;1.60;1.00;;;23.80;52.50;;;;;;220786;1267;24343;-58
2022/07/12 13:33:50;;;;;;;1.50;0.90;;;23.80;53.10;;;;;;220038;1267;366944;-58
2022/07/12 13:40:10;;;;;;;1.90;1.00;;;23.80;52.90;;;;;;220131;1268;22589;-56
2022/07/12 13:44:23;;;;;;;1.70;0.90;;;23.80;52.80;;;;;;220362;1268;24294;-57
2022/07/12 13:49:28;;;;;;;1.80;0.80;;;23.90;52.70;;;;;;220084;1268;24230;-57
2022/07/12 13:54:32;;;;;;;1.30;0.70;;;23.90;52.40;;;;;;220328;1267;25297;-58
2022/07/12 13:59:37;;;;;;;1.30;0.90;;;23.90;52.30;;;;;;220693;1268;24331;-58
2022/07/12 14:04:41;;;;;;;3.90;0.80;;;23.90;51.60;;;;;;220804;1267;25232;-57
2022/07/12 14:09:46;;;;;;;3.30;0.80;;;23.90;51.60;;;;;;220263;1268;22529;-53
2022/07/12 14:20:24;;;;;;;3.50;0.90;;;23.80;51.70;;;;;;220374;1267;25275;-56
2022/07/12 14:25:35;;;;;;;1.80;0.90;;;23.80;52.00;;;;;;220489;1268;22568;-55
2022/07/12 14:30:40;;;;;;;1.60;0.80;;;23.80;51.10;;;;;;220896;1267;22649;-57
2022/07/12 14:35:46;;;;;;;3.10;0.90;;;23.80;51.40;;;;;;221014;1267;25268;-55
2022/07/12 14:40:52;;;;;;;2.30;0.80;;;23.80;51.30;;;;;;220660;1267;22559;-57
2022/07/12 14:45:57;;;;;;;1.70;0.80;;;23.80;51.30;;;;;;220450;1268;24840;-56
2022/07/12 14:51:01;;;;;;;1.50;0.90;;;23.80;51.00;;;;;;220317;1267;24200;-56
2022/07/12 14:56:06;;;;;;;1.80;0.90;;;23.80;50.80;;;;;;220343;1267;23136;-55
2022/07/12 15:01:13;;;;;;;1.50;0.80;;;23.80;50.90;;;;;;220738;1267;25314;-57
2022/07/12 15:06:17;;;;;;;3.60;1.00;;;23.80;51.00;;;;;;220385;1268;22723;-54
2022/07/12 15:11:21;;;;;;;1.50;0.70;;;23.80;51.40;;;;;;220188;1268;22563;-57
2022/07/12 15:16:26;;;;;;;2.80;0.90;;;23.80;51.10;;;;;;220567;1268;26728;-56
2022/07/12 15:21:30;;;;;;;1.40;0.80;;;23.80;51.10;;;;;;220419;1267;23083;-58
2022/07/12 15:26:33;;;;;;;1.30;0.70;;;23.90;49.90;;;;;;220491;1267;24163;-55
2022/07/12 15:31:37;;;;;;;1.30;0.80;;;23.90;50.60;;;;;;220389;1267;24042;-54
2022/07/12 15:36:41;;;;;;;1.70;0.80;;;23.90;50.30;;;;;;220871;1267;23177;-57
2022/07/12 15:41:45;;;;;;;2.20;0.90;;;23.90;49.90;;;;;;220109;1268;24280;-57
2022/07/12 15:46:49;;;;;;;2.60;0.90;;;23.90;49.30;;;;;;220481;1268;22603;-56
2022/07/12 15:57:30;;;;;;;1.50;0.80;;;23.90;50.50;;;;;;220567;1267;26534;-54
2022/07/12 16:02:39;;;;;;;1.60;0.90;;;23.90;49.90;;;;;;220255;1268;23882;-57
2022/07/12 16:08:02;;;;;;;1.90;1.00;;;23.90;49.80;;;;;;220365;1267;22547;-59
2022/07/12 16:13:07;;;;;;;1.40;0.80;;;23.90;49.80;;;;;;220627;1268;22534;-54
2022/07/12 16:18:12;;;;;;;1.40;0.80;;;23.80;49.40;;;;;;220799;1267;25380;-57
2022/07/12 16:23:16;;;;;;;2.80;0.80;;;23.90;50.00;;;;;;220736;1268;23659;-55
2022/07/12 16:28:20;;;;;;;2.60;0.90;;;23.80;48.70;;;;;;220549;1267;22529;-57
2022/07/12 16:33:23;;;;;;;1.20;0.70;;;23.80;48.70;;;;;;220373;1267;24202;-57
2022/07/12 16:38:27;;;;;;;1.30;0.80;;;23.90;48.90;;;;;;220727;1267;22555;-54
2022/07/12 16:43:32;;;;;;;1.50;0.90;;;23.80;49.20;;;;;;220359;1267;22529;-54
2022/07/12 16:48:36;;;;;;;1.30;0.80;;;23.80;48.40;;;;;;220489;1267;22555;-56
2022/07/12 16:53:40;;;;;;;3.10;0.80;;;23.80;49.10;;;;;;220302;1267;24279;-58
2022/07/12 16:58:44;;;;;;;1.20;0.80;;;23.80;48.50;;;;;;220783;1267;24056;-54
2022/07/12 17:03:49;;;;;;;2.30;0.90;;;23.80;48.50;;;;;;220910;1267;22845;-56
2022/07/12 17:08:52;;;;;;;1.40;0.70;;;23.80;47.90;;;;;;220260;1267;22553;-56
2022/07/12 17:14:00;;;;;;;2.80;0.90;;;23.80;48.00;;;;;;220668;1267;24211;-56
2022/07/12 17:19:07;;;;;;;1.10;0.70;;;23.80;47.90;;;;;;220603;1267;23210;-57
2022/07/12 17:24:13;;;;;;;2.80;1.00;;;23.80;47.70;;;;;;220837;1267;22708;-57
2022/07/12 17:29:23;;;;;;;1.20;0.70;;;23.80;47.90;;;;;;220436;1267;22587;-57
2022/07/12 17:34:29;;;;;;;1.60;0.80;;;23.80;47.90;;;;;;220825;1267;25509;-57
2022/07/12 17:39:52;;;;;;;1.20;0.80;;;23.80;48.90;;;;;;220679;1267;24472;-57
2022/07/12 17:45:03;;;;;;;1.60;0.80;;;23.80;48.40;;;;;;220719;1266;24240;-58
2022/07/12 17:50:21;;;;;;;2.50;0.90;;;23.80;48.20;;;;;;220760;1267;22655;-57
2022/07/12 17:55:30;;;;;;;1.00;0.80;;;23.80;48.40;;;;;;220642;1267;26587;-56
2022/07/12 18:00:38;;;;;;;1.70;0.90;;;23.80;48.60;;;;;;220668;1267;25545;-57
2022/07/12 18:05:47;;;;;;;1.20;0.80;;;23.80;48.60;;;;;;220460;1268;22528;-56
2022/07/12 18:16:38;;;;;;;1.90;0.80;;;23.80;48.60;;;;;;220370;1268;22628;-57
2022/07/12 18:21:49;;;;;;;1.70;0.80;;;23.80;49.00;;;;;;220196;1268;24236;-55
2022/07/12 18:27:10;;;;;;;1.10;0.80;;;23.80;49.20;;;;;;220686;1267;22560;-55
2022/07/12 18:32:39;;;;;;;1.50;1.00;;;23.80;49.10;;;;;;220101;1268;25442;-56
2022/07/12 18:38:17;;;;;;;1.70;0.90;;;23.80;49.00;;;;;;220035;1270;22539;-57
2022/07/12 18:43:30;;;;;;;1.90;1.00;;;23.80;48.90;;;;;;220420;1267;25413;-56
2022/07/12 18:49:31;;;;;;;1.70;0.80;;;23.80;48.40;;;;;;219582;1271;25723;-57
2022/07/12 18:54:55;;;;;;;2.50;0.90;;;23.80;49.30;;;;;;220016;1270;25376;-54
2022/07/12 19:00:17;;;;;;;1.40;1.00;;;23.70;49.20;;;;;;220165;1270;25225;-56
2022/07/12 19:05:35;;;;;;;2.00;1.20;;;23.70;48.80;;;;;;220228;1270;24442;-56
2022/07/12 19:11:03;;;;;;;1.70;0.90;;;23.70;49.00;;;;;;220217;1270;24309;-57
2022/07/12 19:16:21;;;;;;;2.40;0.70;;;23.70;48.90;;;;;;220046;1270;23190;-58
2022/07/12 19:21:39;;;;;;;1.50;0.80;;;23.70;48.90;;;;;;220067;1270;24054;-57
2022/07/12 19:26:46;;;;;;;1.30;0.80;;;23.70;49.80;;;;;;220085;1270;22733;-56
2022/07/12 19:31:55;;;;;;;2.00;0.80;;;23.70;49.20;;;;;;220316;1267;22541;-60
2022/07/12 19:37:30;;;;;;;1.20;0.70;;;23.70;49.30;;;;;;220429;1268;24427;-55
2022/07/12 19:42:40;;;;;;;1.40;0.90;;;23.60;49.40;;;;;;220464;1267;22610;-57
2022/07/12 19:47:53;;;;;;;1.30;0.80;;;23.60;49.50;;;;;;220632;1268;24357;-56
2022/07/12 19:53:05;;;;;;;1.30;0.70;;;23.60;49.50;;;;;;220508;1267;22534;-59
2022/07/12 19:58:12;;;;;;;1.40;0.80;;;23.60;49.60;;;;;;220378;1267;24790;-58
2022/07/12 20:03:21;;;;;;;2.30;1.00;;;23.60;49.60;;;;;;220711;1268;24277;-60
2022/07/12 20:08:24;;;;;;;1.10;0.80;;;23.60;49.70;;;;;;220631;1267;22795;-55
2022/07/12 20:13:30;;;;;;;1.50;0.80;;;23.60;50.10;;;;;;220626;1267;24271;-57
2022/07/12 20:18:37;;;;;;;1.70;0.70;;;23.60;49.90;;;;;;220533;1268;23973;-56
2022/07/12 20:23:41;;;;;;;1.70;0.90;;;23.60;50.30;;;;;;220523;1267;24111;-58
2022/07/12 20:28:47;;;;;;;1.20;0.80;;;23.60;50.40;;;;;;220381;1267;22696;-56
2022/07/12 20:39:20;;;;;;;1.00;0.70;;;23.50;50.10;;;;;;220498;1267;25483;-56
2022/07/12 20:44:25;;;;;;;1.70;0.70;;;23.50;50.50;;;;;;220119;1270;22553;-58
2022/07/12 20:49:29;;;;;;;1.30;0.80;;;23.50;50.30;;;;;;220406;1268;22626;-56
2022/07/12 20:54:37;;;;;;;1.50;0.70;;;23.50;50.40;;;;;;220840;1267;24268;-58
2022/07/12 20:59:44;;;;;;;2.90;0.90;;;23.50;50.40;;;;;;220599;1267;24808;-57
2022/07/12 21:04:49;;;;;;;1.10;0.80;;;23.50;50.40;;;;;;220500;1268;25611;-56
2022/07/12 21:09:53;;;;;;;2.10;0.90;;;23.50;50.40;;;;;;220427;1267;22563;-57
2022/07/12 21:14:57;;;;;;;1.10;0.70;;;23.50;50.50;;;;;;220310;1267;25366;-54
2022/07/12 21:20:06;;;;;;;1.60;1.00;;;23.50;50.90;;;;;;220413;1267;24212;-57
2022/07/12 21:25:09;;;;;;;1.00;0.80;;;23.50;50.50;;;;;;220391;1267;24256;-54
2022/07/12 21:30:13;;;;;;;2.20;0.80;;;23.50;50.70;;;;;;220421;1267;22695;-55
2022/07/12 21:35:19;;;;;;;1.10;0.80;;;23.40;50.60;;;;;;220773;1267;24332;-60
2022/07/12 21:40:23;;;;;;;1.60;0.80;;;23.40;50.90;;;;;;220319;1269;23952;-57
2022/07/12 21:45:30;;;;;;;0.80;0.70;;;23.50;51.40;;;;;;219941;1270;22531;-55
2022/07/12 21:50:41;;;;;;;;;;;23.40;50.90;;;;;;220270;1270;24685;-56
2022/07/12 21:56:02;;;;;;;2.40;0.80;;;23.40;51.10;;;;;;220216;1270;25659;-56
2022/07/12 22:01:07;;;;;;;1.40;0.70;;;23.40;51.20;;;;;;220212;1267;22666;-57
2022/07/12 22:06:19;;;;;;;;;;;23.40;51.20;;;;;;220168;1267;24211;-57
2022/07/12 22:11:24;;;;;;;1.20;0.70;;;23.40;51.20;;;;;;220378;1267;25496;-57
2022/07/12 22:16:30;;;;;;;1.60;0.80;;;23.30;51.20;;;;;;220378;1267;24309;-60
2022/07/12 22:21:34;;;;;;;1.50;0.90;;;23.30;51.30;;;;;;220091;1268;22705;-57
2022/07/12 22:26:38;;;;;;;1.70;0.70;;;23.40;51.30;;;;;;220144;1267;24727;-59
2022/07/12 22:31:41;;;;;;;1.00;0.70;;;23.30;51.20;;;;;;220505;1268;24384;-56
2022/07/12 22:36:48;;;;;;;1.30;0.80;;;23.30;52.00;;;;;;220289;1267;23039;-56
2022/07/12 22:41:51;;;;;;;1.70;0.70;;;23.30;51.20;;;;;;220629;1268;22555;-57
2022/07/12 22:46:55;;;;;;;1.00;0.80;;;23.30;51.30;;;;;;220798;1267;25553;-56
2022/07/12 22:51:59;;;;;;;1.30;0.90;;;23.30;51.20;;;;;;220458;1267;22569;-54
2022/07/12 22:57:03;;;;;;;1.20;0.80;;;23.30;51.30;;;;;;220927;1267;22551;-58
2022/07/12 23:02:13;;;;;;;1.10;0.80;;;23.30;51.30;;;;;;220319;1268;22530;-57
2022/07/12 23:07:18;;;;;;;0.90;0.70;;;23.30;51.30;;;;;;220294;1268;22818;-55
2022/07/12 23:12:22;;;;;;;1.10;0.80;;;23.20;51.60;;;;;;220397;1268;22556;-57
2022/07/12 23:17:29;;;;;;;1.20;0.80;;;23.20;51.40;;;;;;220462;1267;25547;-56
2022/07/12 23:22:35;;;;;;;1.20;0.70;;;23.20;51.40;;;;;;220554;1267;24213;-56
2022/07/12 23:27:41;;;;;;;0.90;0.70;;;23.20;51.40;;;;;;220460;1269;22624;-56
2022/07/12 23:32:46;;;;;;;1.50;0.80;;;23.20;51.40;;;;;;220581;1267;22550;-56
2022/07/12 23:37:49;;;;;;;1.60;0.90;;;23.20;52.00;;;;;;220629;1267;25648;-56
2022/07/12 23:43:11;;;;;;;1.90;1.00;;;23.20;51.40;;;;;;220413;1270;24157;-57
2022/07/12 23:48:15;;;;;;;1.50;0.80;;;23.20;51.70;;;;;;220513;1267;22846;-54
2022/07/12 23:53:19;;;;;;;1.60;0.90;;;23.20;51.50;;;;;;220480;1267;23077;-55
2022/07/12 23:58:23;;;;;;;1.50;0.80;;;23.20;51.50;;;;;;220705;1267;24058;-56
